sensor_id;sensor_type;location;lat;lon;timestamp;P1;durP1;ratioP1;P2;durP2;ratioP2
70549;SDS011;58101;48.658;2.328;2023-04-01T00:00:23;12.98;;;1.67;;
70549;SDS011;58101;48.658;2.328;2023-04-01T00:02:49;11.10;;;1.42;;
70549;SDS011;58101;48.658;2.328;2023-04-01T00:05:15;10.88;;;1.50;;
70549;SDS011;58101;48.658;2.328;2023-04-01T00:07:41;13.25;;;1.70;;
70549;SDS011;58101;48.658;2.328;2023-04-01T00:10:08;15.00;;;2.05;;
70549;SDS011;58101;48.658;2.328;2023-04-01T00:12:36;13.32;;;1.63;;
70549;SDS011;58101;48.658;2.328;2023-04-01T00:15:03;11.27;;;1.48;;
70549;SDS011;58101;48.658;2.328;2023-04-01T00:17:33;11.98;;;1.80;;
70549;SDS011;58101;48.658;2.328;2023-04-01T00:19:59;12.65;;;1.70;;
70549;SDS011;58101;48.658;2.328;2023-04-01T00:22:25;10.98;;;1.48;;
70549;SDS011;58101;48.658;2.328;2023-04-01T00:24:52;15.20;;;1.95;;
70549;SDS011;58101;48.658;2.328;2023-04-01T00:27:17;11.10;;;1.52;;
70549;SDS011;58101;48.658;2.328;2023-04-01T00:29:44;12.88;;;1.55;;
70549;SDS011;58101;48.658;2.328;2023-04-01T00:34:36;12.55;;;1.80;;
70549;SDS011;58101;48.658;2.328;2023-04-01T00:37:02;11.05;;;2.00;;
70549;SDS011;58101;48.658;2.328;2023-04-01T00:39:29;9.52;;;1.45;;
70549;SDS011;58101;48.658;2.328;2023-04-01T00:41:55;15.02;;;1.45;;
70549;SDS011;58101;48.658;2.328;2023-04-01T00:44:26;9.85;;;1.65;;
70549;SDS011;58101;48.658;2.328;2023-04-01T00:46:53;12.63;;;1.65;;
70549;SDS011;58101;48.658;2.328;2023-04-01T00:49:21;15.57;;;2.20;;
70549;SDS011;58101;48.658;2.328;2023-04-01T00:51:50;10.20;;;1.52;;
70549;SDS011;58101;48.658;2.328;2023-04-01T00:54:19;14.38;;;2.08;;
70549;SDS011;58101;48.658;2.328;2023-04-01T00:56:51;14.80;;;1.85;;
70549;SDS011;58101;48.658;2.328;2023-04-01T00:59:23;9.90;;;1.20;;
70549;SDS011;58101;48.658;2.328;2023-04-01T01:01:51;8.95;;;1.60;;
70549;SDS011;58101;48.658;2.328;2023-04-01T01:07:03;10.02;;;1.38;;
70549;SDS011;58101;48.658;2.328;2023-04-01T01:12:25;10.82;;;1.23;;
70549;SDS011;58101;48.658;2.328;2023-04-01T01:17:58;9.00;;;1.30;;
70549;SDS011;58101;48.658;2.328;2023-04-01T01:20:35;12.05;;;1.55;;
70549;SDS011;58101;48.658;2.328;2023-04-01T01:28:56;10.75;;;1.30;;
70549;SDS011;58101;48.658;2.328;2023-04-01T01:37:13;9.85;;;1.30;;
70549;SDS011;58101;48.658;2.328;2023-04-01T01:39:42;6.93;;;1.10;;
70549;SDS011;58101;48.658;2.328;2023-04-01T01:42:11;7.32;;;1.30;;
70549;SDS011;58101;48.658;2.328;2023-04-01T01:44:39;9.82;;;1.15;;
70549;SDS011;58101;48.658;2.328;2023-04-01T01:47:08;11.80;;;1.70;;
70549;SDS011;58101;48.658;2.328;2023-04-01T01:49:34;8.07;;;1.40;;
70549;SDS011;58101;48.658;2.328;2023-04-01T01:52:01;10.05;;;1.73;;
70549;SDS011;58101;48.658;2.328;2023-04-01T01:54:28;10.65;;;1.38;;
70549;SDS011;58101;48.658;2.328;2023-04-01T01:56:56;13.60;;;1.48;;
70549;SDS011;58101;48.658;2.328;2023-04-01T02:02:01;9.60;;;1.42;;
70549;SDS011;58101;48.658;2.328;2023-04-01T02:04:33;11.63;;;1.35;;
70549;SDS011;58101;48.658;2.328;2023-04-01T02:07:04;10.10;;;1.35;;
70549;SDS011;58101;48.658;2.328;2023-04-01T02:09:36;9.10;;;1.48;;
70549;SDS011;58101;48.658;2.328;2023-04-01T02:12:06;10.25;;;1.10;;
70549;SDS011;58101;48.658;2.328;2023-04-01T02:14:42;10.73;;;1.27;;
70549;SDS011;58101;48.658;2.328;2023-04-01T02:17:35;9.00;;;1.58;;
70549;SDS011;58101;48.658;2.328;2023-04-01T02:22:35;13.40;;;1.63;;
70549;SDS011;58101;48.658;2.328;2023-04-01T02:25:10;10.05;;;1.45;;
70549;SDS011;58101;48.658;2.328;2023-04-01T02:27:38;7.45;;;1.40;;
70549;SDS011;58101;48.658;2.328;2023-04-01T02:30:05;5.85;;;1.10;;
70549;SDS011;58101;48.658;2.328;2023-04-01T02:32:32;6.60;;;1.10;;
70549;SDS011;58101;48.658;2.328;2023-04-01T02:34:59;10.07;;;1.30;;
70549;SDS011;58101;48.658;2.328;2023-04-01T02:37:28;10.88;;;1.40;;
70549;SDS011;58101;48.658;2.328;2023-04-01T02:39:54;8.05;;;1.45;;
70549;SDS011;58101;48.658;2.328;2023-04-01T02:42:23;10.13;;;1.25;;
70549;SDS011;58101;48.658;2.328;2023-04-01T02:44:49;10.75;;;1.10;;
70549;SDS011;58101;48.658;2.328;2023-04-01T02:47:14;7.78;;;1.17;;
70549;SDS011;58101;48.658;2.328;2023-04-01T02:49:40;5.97;;;1.10;;
70549;SDS011;58101;48.658;2.328;2023-04-01T02:52:06;10.20;;;1.42;;
70549;SDS011;58101;48.658;2.328;2023-04-01T02:54:32;7.70;;;1.20;;
70549;SDS011;58101;48.658;2.328;2023-04-01T02:56:57;8.60;;;1.20;;
70549;SDS011;58101;48.658;2.328;2023-04-01T02:59:23;7.25;;;1.00;;
70549;SDS011;58101;48.658;2.328;2023-04-01T03:01:49;7.72;;;1.00;;
70549;SDS011;58101;48.658;2.328;2023-04-01T03:04:14;8.70;;;1.27;;
70549;SDS011;58101;48.658;2.328;2023-04-01T03:06:40;14.45;;;1.75;;
70549;SDS011;58101;48.658;2.328;2023-04-01T03:09:06;9.48;;;1.20;;
70549;SDS011;58101;48.658;2.328;2023-04-01T03:11:31;11.82;;;1.50;;
70549;SDS011;58101;48.658;2.328;2023-04-01T03:13:57;6.85;;;1.00;;
70549;SDS011;58101;48.658;2.328;2023-04-01T03:16:22;6.35;;;0.90;;
70549;SDS011;58101;48.658;2.328;2023-04-01T03:18:48;8.95;;;1.13;;
70549;SDS011;58101;48.658;2.328;2023-04-01T03:23:42;9.48;;;1.15;;
70549;SDS011;58101;48.658;2.328;2023-04-01T03:26:07;8.38;;;1.10;;
70549;SDS011;58101;48.658;2.328;2023-04-01T03:28:33;8.05;;;1.13;;
70549;SDS011;58101;48.658;2.328;2023-04-01T03:30:59;9.20;;;1.52;;
70549;SDS011;58101;48.658;2.328;2023-04-01T03:33:24;7.50;;;1.00;;
70549;SDS011;58101;48.658;2.328;2023-04-01T03:35:50;8.05;;;0.85;;
70549;SDS011;58101;48.658;2.328;2023-04-01T03:38:17;10.35;;;0.90;;
70549;SDS011;58101;48.658;2.328;2023-04-01T03:40:43;12.00;;;1.83;;
70549;SDS011;58101;48.658;2.328;2023-04-01T03:43:09;9.15;;;1.10;;
70549;SDS011;58101;48.658;2.328;2023-04-01T03:45:36;5.97;;;0.80;;
70549;SDS011;58101;48.658;2.328;2023-04-01T03:48:08;9.70;;;1.10;;
70549;SDS011;58101;48.658;2.328;2023-04-01T03:50:34;9.88;;;1.20;;
70549;SDS011;58101;48.658;2.328;2023-04-01T03:53:00;8.48;;;1.30;;
70549;SDS011;58101;48.658;2.328;2023-04-01T03:55:25;9.55;;;1.25;;
70549;SDS011;58101;48.658;2.328;2023-04-01T03:57:51;6.82;;;1.00;;
70549;SDS011;58101;48.658;2.328;2023-04-01T04:00:17;6.68;;;0.90;;
70549;SDS011;58101;48.658;2.328;2023-04-01T04:02:42;6.55;;;0.98;;
70549;SDS011;58101;48.658;2.328;2023-04-01T04:05:08;11.60;;;1.05;;
70549;SDS011;58101;48.658;2.328;2023-04-01T04:07:34;7.95;;;1.33;;
70549;SDS011;58101;48.658;2.328;2023-04-01T04:10:00;8.32;;;1.17;;
70549;SDS011;58101;48.658;2.328;2023-04-01T04:12:26;6.50;;;1.00;;
70549;SDS011;58101;48.658;2.328;2023-04-01T04:14:51;6.43;;;0.98;;
70549;SDS011;58101;48.658;2.328;2023-04-01T04:17:17;9.95;;;1.30;;
70549;SDS011;58101;48.658;2.328;2023-04-01T04:19:43;7.38;;;1.13;;
70549;SDS011;58101;48.658;2.328;2023-04-01T04:22:08;8.25;;;1.13;;
70549;SDS011;58101;48.658;2.328;2023-04-01T04:24:34;9.38;;;0.98;;
70549;SDS011;58101;48.658;2.328;2023-04-01T04:27:01;9.90;;;1.25;;
70549;SDS011;58101;48.658;2.328;2023-04-01T04:29:26;7.78;;;1.10;;
70549;SDS011;58101;48.658;2.328;2023-04-01T04:31:52;10.73;;;1.40;;
70549;SDS011;58101;48.658;2.328;2023-04-01T04:34:18;5.68;;;1.15;;
70549;SDS011;58101;48.658;2.328;2023-04-01T04:36:43;10.57;;;1.42;;
70549;SDS011;58101;48.658;2.328;2023-04-01T04:39:09;6.07;;;1.00;;
70549;SDS011;58101;48.658;2.328;2023-04-01T04:41:36;7.55;;;0.98;;
70549;SDS011;58101;48.658;2.328;2023-04-01T04:44:02;11.07;;;1.45;;
70549;SDS011;58101;48.658;2.328;2023-04-01T04:46:28;7.72;;;1.10;;
70549;SDS011;58101;48.658;2.328;2023-04-01T04:48:54;7.30;;;1.10;;
70549;SDS011;58101;48.658;2.328;2023-04-01T04:51:20;4.85;;;0.80;;
70549;SDS011;58101;48.658;2.328;2023-04-01T04:53:46;3.22;;;0.82;;
70549;SDS011;58101;48.658;2.328;2023-04-01T04:56:12;9.18;;;1.35;;
70549;SDS011;58101;48.658;2.328;2023-04-01T04:58:38;8.00;;;1.02;;
70549;SDS011;58101;48.658;2.328;2023-04-01T05:01:05;5.43;;;0.80;;
70549;SDS011;58101;48.658;2.328;2023-04-01T05:03:35;6.95;;;0.95;;
70549;SDS011;58101;48.658;2.328;2023-04-01T05:06:01;7.43;;;0.88;;
70549;SDS011;58101;48.658;2.328;2023-04-01T05:08:27;7.53;;;1.50;;
70549;SDS011;58101;48.658;2.328;2023-04-01T05:10:53;8.00;;;0.95;;
70549;SDS011;58101;48.658;2.328;2023-04-01T05:13:18;6.97;;;1.30;;
70549;SDS011;58101;48.658;2.328;2023-04-01T05:15:44;8.32;;;1.30;;
70549;SDS011;58101;48.658;2.328;2023-04-01T05:18:10;7.50;;;0.90;;
70549;SDS011;58101;48.658;2.328;2023-04-01T05:20:36;7.35;;;1.00;;
70549;SDS011;58101;48.658;2.328;2023-04-01T05:23:02;3.92;;;0.80;;
70549;SDS011;58101;48.658;2.328;2023-04-01T05:25:28;8.20;;;0.98;;
70549;SDS011;58101;48.658;2.328;2023-04-01T05:27:54;6.72;;;0.90;;
70549;SDS011;58101;48.658;2.328;2023-04-01T05:30:19;8.07;;;0.90;;
70549;SDS011;58101;48.658;2.328;2023-04-01T05:32:45;6.80;;;1.02;;
70549;SDS011;58101;48.658;2.328;2023-04-01T05:35:11;6.78;;;1.10;;
70549;SDS011;58101;48.658;2.328;2023-04-01T05:37:37;9.68;;;1.00;;
70549;SDS011;58101;48.658;2.328;2023-04-01T05:40:03;7.32;;;1.48;;
70549;SDS011;58101;48.658;2.328;2023-04-01T05:42:29;8.48;;;1.02;;
70549;SDS011;58101;48.658;2.328;2023-04-01T05:44:55;6.28;;;1.10;;
70549;SDS011;58101;48.658;2.328;2023-04-01T05:47:21;7.07;;;1.33;;
70549;SDS011;58101;48.658;2.328;2023-04-01T05:49:47;6.40;;;1.15;;
70549;SDS011;58101;48.658;2.328;2023-04-01T05:52:13;8.65;;;1.23;;
70549;SDS011;58101;48.658;2.328;2023-04-01T05:54:38;4.55;;;0.75;;
70549;SDS011;58101;48.658;2.328;2023-04-01T05:57:04;7.15;;;0.90;;
70549;SDS011;58101;48.658;2.328;2023-04-01T05:59:30;5.28;;;0.90;;
70549;SDS011;58101;48.658;2.328;2023-04-01T06:01:59;9.32;;;1.20;;
70549;SDS011;58101;48.658;2.328;2023-04-01T06:04:26;7.78;;;0.90;;
70549;SDS011;58101;48.658;2.328;2023-04-01T06:06:56;7.47;;;1.00;;
70549;SDS011;58101;48.658;2.328;2023-04-01T06:09:29;6.80;;;0.90;;
70549;SDS011;58101;48.658;2.328;2023-04-01T06:12:07;8.70;;;1.20;;
70549;SDS011;58101;48.658;2.328;2023-04-01T06:31:06;7.72;;;1.10;;
70549;SDS011;58101;48.658;2.328;2023-04-01T06:58:13;5.88;;;0.90;;
70549;SDS011;58101;48.658;2.328;2023-04-01T07:00:52;6.60;;;1.00;;
70549;SDS011;58101;48.658;2.328;2023-04-01T07:03:23;5.38;;;0.80;;
70549;SDS011;58101;48.658;2.328;2023-04-01T07:05:58;6.82;;;0.88;;
70549;SDS011;58101;48.658;2.328;2023-04-01T07:08:28;5.35;;;0.85;;
70549;SDS011;58101;48.658;2.328;2023-04-01T07:10:58;4.53;;;1.00;;
70549;SDS011;58101;48.658;2.328;2023-04-01T07:13:29;8.32;;;0.95;;
70549;SDS011;58101;48.658;2.328;2023-04-01T07:16:17;7.82;;;0.90;;
70549;SDS011;58101;48.658;2.328;2023-04-01T07:21:37;7.75;;;0.90;;
70549;SDS011;58101;48.658;2.328;2023-04-01T07:24:11;5.47;;;0.90;;
70549;SDS011;58101;48.658;2.328;2023-04-01T07:29:12;7.30;;;1.30;;
70549;SDS011;58101;48.658;2.328;2023-04-01T07:34:45;6.82;;;1.00;;
70549;SDS011;58101;48.658;2.328;2023-04-01T07:43:28;6.35;;;1.00;;
70549;SDS011;58101;48.658;2.328;2023-04-01T07:46:09;6.97;;;1.20;;
70549;SDS011;58101;48.658;2.328;2023-04-01T07:49:14;7.40;;;1.30;;
70549;SDS011;58101;48.658;2.328;2023-04-01T07:52:06;6.60;;;0.95;;
70549;SDS011;58101;48.658;2.328;2023-04-01T08:00:11;3.90;;;0.90;;
70549;SDS011;58101;48.658;2.328;2023-04-01T08:05:53;11.02;;;1.30;;
70549;SDS011;58101;48.658;2.328;2023-04-01T08:11:15;5.82;;;0.80;;
70549;SDS011;58101;48.658;2.328;2023-04-01T08:21:47;6.85;;;1.02;;
70549;SDS011;58101;48.658;2.328;2023-04-01T08:24:27;5.32;;;0.93;;
70549;SDS011;58101;48.658;2.328;2023-04-01T08:26:57;5.93;;;0.95;;
70549;SDS011;58101;48.658;2.328;2023-04-01T08:29:36;7.75;;;1.20;;
70549;SDS011;58101;48.658;2.328;2023-04-01T08:32:13;6.15;;;1.08;;
70549;SDS011;58101;48.658;2.328;2023-04-01T08:34:44;7.03;;;1.05;;
70549;SDS011;58101;48.658;2.328;2023-04-01T08:37:26;7.55;;;1.20;;
70549;SDS011;58101;48.658;2.328;2023-04-01T08:39:58;7.03;;;1.05;;
70549;SDS011;58101;48.658;2.328;2023-04-01T08:42:42;6.82;;;1.05;;
70549;SDS011;58101;48.658;2.328;2023-04-01T08:47:54;5.82;;;0.90;;
70549;SDS011;58101;48.658;2.328;2023-04-01T09:04:38;6.10;;;0.93;;
70549;SDS011;58101;48.658;2.328;2023-04-01T09:29:16;9.63;;;1.00;;
70549;SDS011;58101;48.658;2.328;2023-04-01T09:34:52;7.22;;;0.93;;
70549;SDS011;58101;48.658;2.328;2023-04-01T09:37:41;7.20;;;1.15;;
70549;SDS011;58101;48.658;2.328;2023-04-01T09:40:17;5.88;;;0.90;;
70549;SDS011;58101;48.658;2.328;2023-04-01T09:45:46;6.93;;;1.20;;
70549;SDS011;58101;48.658;2.328;2023-04-01T09:48:46;7.00;;;1.05;;
70549;SDS011;58101;48.658;2.328;2023-04-01T09:54:04;6.15;;;0.93;;
70549;SDS011;58101;48.658;2.328;2023-04-01T10:05:38;6.95;;;0.90;;
70549;SDS011;58101;48.658;2.328;2023-04-01T10:16:25;5.22;;;1.00;;
70549;SDS011;58101;48.658;2.328;2023-04-01T10:34:44;5.75;;;0.85;;
70549;SDS011;58101;48.658;2.328;2023-04-01T10:42:38;4.53;;;0.80;;
70549;SDS011;58101;48.658;2.328;2023-04-01T10:45:37;8.32;;;0.90;;
70549;SDS011;58101;48.658;2.328;2023-04-01T10:48:25;6.45;;;1.00;;
70549;SDS011;58101;48.658;2.328;2023-04-01T11:46:49;6.45;;;0.88;;
70549;SDS011;58101;48.658;2.328;2023-04-01T11:55:41;3.88;;;0.80;;
70549;SDS011;58101;48.658;2.328;2023-04-01T12:14:19;6.15;;;0.90;;
70549;SDS011;58101;48.658;2.328;2023-04-01T12:28:32;5.07;;;0.93;;
70549;SDS011;58101;48.658;2.328;2023-04-01T12:39:22;4.35;;;0.73;;
70549;SDS011;58101;48.658;2.328;2023-04-01T13:02:49;4.20;;;0.80;;
70549;SDS011;58101;48.658;2.328;2023-04-01T13:17:13;2.47;;;0.70;;
70549;SDS011;58101;48.658;2.328;2023-04-01T13:19:27;5.55;;;0.70;;
70549;SDS011;58101;48.658;2.328;2023-04-01T13:22:20;6.50;;;1.00;;
70549;SDS011;58101;48.658;2.328;2023-04-01T13:25:00;3.08;;;0.60;;
70549;SDS011;58101;48.658;2.328;2023-04-01T13:27:47;5.57;;;1.00;;
70549;SDS011;58101;48.658;2.328;2023-04-01T13:44:37;6.47;;;0.90;;
70549;SDS011;58101;48.658;2.328;2023-04-01T13:55:18;2.17;;;0.60;;
70549;SDS011;58101;48.658;2.328;2023-04-01T14:01:17;3.30;;;0.63;;
70549;SDS011;58101;48.658;2.328;2023-04-01T14:12:34;4.10;;;0.70;;
70549;SDS011;58101;48.658;2.328;2023-04-01T14:26:20;6.20;;;1.10;;
70549;SDS011;58101;48.658;2.328;2023-04-01T14:32:07;3.58;;;0.70;;
70549;SDS011;58101;48.658;2.328;2023-04-01T14:37:48;3.67;;;0.68;;
70549;SDS011;58101;48.658;2.328;2023-04-01T14:43:28;3.90;;;0.90;;
70549;SDS011;58101;48.658;2.328;2023-04-01T14:52:04;3.63;;;0.60;;
70549;SDS011;58101;48.658;2.328;2023-04-01T14:54:46;5.38;;;0.90;;
70549;SDS011;58101;48.658;2.328;2023-04-01T14:57:15;5.97;;;0.80;;
70549;SDS011;58101;48.658;2.328;2023-04-01T15:07:35;7.40;;;1.00;;
70549;SDS011;58101;48.658;2.328;2023-04-01T15:10:12;3.85;;;0.90;;
70549;SDS011;58101;48.658;2.328;2023-04-01T15:18:13;6.00;;;0.85;;
70549;SDS011;58101;48.658;2.328;2023-04-01T15:21:02;5.55;;;1.00;;
70549;SDS011;58101;48.658;2.328;2023-04-01T15:23:34;5.03;;;0.90;;
70549;SDS011;58101;48.658;2.328;2023-04-01T15:29:02;4.60;;;0.70;;
70549;SDS011;58101;48.658;2.328;2023-04-01T15:31:34;8.50;;;1.00;;
70549;SDS011;58101;48.658;2.328;2023-04-01T15:34:51;5.13;;;0.80;;
70549;SDS011;58101;48.658;2.328;2023-04-01T15:37:00;9.07;;;1.30;;
70549;SDS011;58101;48.658;2.328;2023-04-01T15:39:49;6.10;;;1.00;;
70549;SDS011;58101;48.658;2.328;2023-04-01T15:47:38;8.00;;;1.42;;
70549;SDS011;58101;48.658;2.328;2023-04-01T15:50:46;5.40;;;0.70;;
70549;SDS011;58101;48.658;2.328;2023-04-01T15:53:37;4.72;;;0.63;;
70549;SDS011;58101;48.658;2.328;2023-04-01T15:59:20;3.38;;;0.70;;
70549;SDS011;58101;48.658;2.328;2023-04-01T16:02:07;6.07;;;1.05;;
70549;SDS011;58101;48.658;2.328;2023-04-01T16:33:10;5.13;;;0.98;;
70549;SDS011;58101;48.658;2.328;2023-04-01T16:35:58;4.28;;;1.20;;
70549;SDS011;58101;48.658;2.328;2023-04-01T16:39:48;3.80;;;0.80;;
70549;SDS011;58101;48.658;2.328;2023-04-01T16:44:44;3.45;;;0.80;;
70549;SDS011;58101;48.658;2.328;2023-04-01T16:47:20;4.22;;;0.80;;
70549;SDS011;58101;48.658;2.328;2023-04-01T16:50:00;4.90;;;0.90;;
70549;SDS011;58101;48.658;2.328;2023-04-01T16:55:42;6.18;;;1.00;;
70549;SDS011;58101;48.658;2.328;2023-04-01T16:58:36;5.32;;;1.05;;
70549;SDS011;58101;48.658;2.328;2023-04-01T17:01:24;3.33;;;0.75;;
70549;SDS011;58101;48.658;2.328;2023-04-01T17:03:58;5.32;;;0.90;;
70549;SDS011;58101;48.658;2.328;2023-04-01T17:06:33;5.18;;;1.10;;
70549;SDS011;58101;48.658;2.328;2023-04-01T17:09:21;3.08;;;0.80;;
70549;SDS011;58101;48.658;2.328;2023-04-01T17:11:59;6.38;;;0.90;;
70549;SDS011;58101;48.658;2.328;2023-04-01T17:14:39;6.15;;;1.00;;
70549;SDS011;58101;48.658;2.328;2023-04-01T17:20:10;3.80;;;0.90;;
70549;SDS011;58101;48.658;2.328;2023-04-01T17:26:05;4.93;;;1.00;;
70549;SDS011;58101;48.658;2.328;2023-04-01T17:28:52;3.88;;;0.90;;
70549;SDS011;58101;48.658;2.328;2023-04-01T17:37:14;5.82;;;1.20;;
70549;SDS011;58101;48.658;2.328;2023-04-01T17:46:01;5.47;;;0.90;;
70549;SDS011;58101;48.658;2.328;2023-04-01T18:09:38;6.65;;;1.38;;
70549;SDS011;58101;48.658;2.328;2023-04-01T18:15:48;7.35;;;2.00;;
70549;SDS011;58101;48.658;2.328;2023-04-01T18:27:32;8.18;;;1.67;;
70549;SDS011;58101;48.658;2.328;2023-04-01T18:29:45;9.90;;;1.65;;
70549;SDS011;58101;48.658;2.328;2023-04-01T18:35:14;9.35;;;1.50;;
70549;SDS011;58101;48.658;2.328;2023-04-01T18:38:06;7.55;;;1.65;;
70549;SDS011;58101;48.658;2.328;2023-04-01T18:46:40;7.80;;;1.58;;
70549;SDS011;58101;48.658;2.328;2023-04-01T18:49:43;7.32;;;1.58;;
70549;SDS011;58101;48.658;2.328;2023-04-01T18:57:18;6.95;;;1.65;;
70549;SDS011;58101;48.658;2.328;2023-04-01T18:59:46;6.75;;;2.10;;
70549;SDS011;58101;48.658;2.328;2023-04-01T19:02:31;8.57;;;1.55;;
70549;SDS011;58101;48.658;2.328;2023-04-01T19:05:18;10.70;;;2.40;;
70549;SDS011;58101;48.658;2.328;2023-04-01T19:07:49;11.25;;;3.45;;
70549;SDS011;58101;48.658;2.328;2023-04-01T19:16:28;7.63;;;1.65;;
70549;SDS011;58101;48.658;2.328;2023-04-01T19:21:37;5.50;;;1.42;;
70549;SDS011;58101;48.658;2.328;2023-04-01T19:26:56;8.27;;;2.20;;
70549;SDS011;58101;48.658;2.328;2023-04-01T19:29:31;8.95;;;1.70;;
70549;SDS011;58101;48.658;2.328;2023-04-01T19:37:54;8.50;;;1.40;;
70549;SDS011;58101;48.658;2.328;2023-04-01T19:40:34;9.32;;;1.80;;
70549;SDS011;58101;48.658;2.328;2023-04-01T19:45:49;6.72;;;1.70;;
70549;SDS011;58101;48.658;2.328;2023-04-01T19:51:13;8.48;;;1.58;;
70549;SDS011;58101;48.658;2.328;2023-04-01T19:53:48;8.57;;;1.70;;
70549;SDS011;58101;48.658;2.328;2023-04-01T19:56:47;8.73;;;1.98;;
70549;SDS011;58101;48.658;2.328;2023-04-01T20:02:38;7.85;;;1.52;;
70549;SDS011;58101;48.658;2.328;2023-04-01T20:10:55;8.48;;;1.70;;
70549;SDS011;58101;48.658;2.328;2023-04-01T20:13:51;6.78;;;1.60;;
70549;SDS011;58101;48.658;2.328;2023-04-01T20:16:19;10.93;;;2.22;;
70549;SDS011;58101;48.658;2.328;2023-04-01T20:26:22;9.10;;;1.67;;
70549;SDS011;58101;48.658;2.328;2023-04-01T20:31:36;7.88;;;1.80;;
70549;SDS011;58101;48.658;2.328;2023-04-01T20:42:54;9.30;;;2.08;;
70549;SDS011;58101;48.658;2.328;2023-04-01T20:48:10;7.35;;;2.10;;
70549;SDS011;58101;48.658;2.328;2023-04-01T20:53:38;10.45;;;2.10;;
70549;SDS011;58101;48.658;2.328;2023-04-01T20:56:26;8.85;;;2.47;;
70549;SDS011;58101;48.658;2.328;2023-04-01T21:04:35;8.95;;;2.30;;
70549;SDS011;58101;48.658;2.328;2023-04-01T21:07:21;9.48;;;2.05;;
70549;SDS011;58101;48.658;2.328;2023-04-01T21:12:46;7.70;;;1.95;;
70549;SDS011;58101;48.658;2.328;2023-04-01T21:15:30;7.97;;;2.38;;
70549;SDS011;58101;48.658;2.328;2023-04-01T21:26:34;8.57;;;2.50;;
70549;SDS011;58101;48.658;2.328;2023-04-01T22:17:16;8.65;;;3.00;;
70549;SDS011;58101;48.658;2.328;2023-04-01T22:19:55;10.35;;;2.80;;
70549;SDS011;58101;48.658;2.328;2023-04-01T22:28:18;10.15;;;2.50;;
70549;SDS011;58101;48.658;2.328;2023-04-01T22:30:55;9.27;;;2.63;;
70549;SDS011;58101;48.658;2.328;2023-04-01T22:39:04;12.25;;;3.10;;
70549;SDS011;58101;48.658;2.328;2023-04-01T22:50:14;9.90;;;2.80;;
70549;SDS011;58101;48.658;2.328;2023-04-01T22:52:51;10.65;;;3.05;;
70549;SDS011;58101;48.658;2.328;2023-04-01T22:55:28;11.52;;;3.05;;
70549;SDS011;58101;48.658;2.328;2023-04-01T22:57:58;12.75;;;3.50;;
70549;SDS011;58101;48.658;2.328;2023-04-01T23:00:43;10.70;;;3.17;;
70549;SDS011;58101;48.658;2.328;2023-04-01T23:03:17;12.50;;;3.17;;
70549;SDS011;58101;48.658;2.328;2023-04-01T23:05:54;9.32;;;3.03;;
70549;SDS011;58101;48.658;2.328;2023-04-01T23:11:09;12.35;;;3.38;;
70549;SDS011;58101;48.658;2.328;2023-04-01T23:16:31;12.57;;;3.22;;
70549;SDS011;58101;48.658;2.328;2023-04-01T23:19:06;13.93;;;3.30;;
70549;SDS011;58101;48.658;2.328;2023-04-01T23:21:43;11.80;;;3.70;;
70549;SDS011;58101;48.658;2.328;2023-04-01T23:24:24;11.98;;;3.38;;
70549;SDS011;58101;48.658;2.328;2023-04-01T23:26:59;13.38;;;3.47;;
70549;SDS011;58101;48.658;2.328;2023-04-01T23:29:35;10.32;;;3.28;;
70549;SDS011;58101;48.658;2.328;2023-04-01T23:32:05;14.82;;;3.40;;
70549;SDS011;58101;48.658;2.328;2023-04-01T23:34:38;11.45;;;3.33;;
70549;SDS011;58101;48.658;2.328;2023-04-01T23:37:05;11.80;;;3.35;;
70549;SDS011;58101;48.658;2.328;2023-04-01T23:39:39;9.80;;;3.60;;
70549;SDS011;58101;48.658;2.328;2023-04-01T23:42:13;10.98;;;3.55;;
70549;SDS011;58101;48.658;2.328;2023-04-01T23:44:44;9.75;;;3.25;;
70549;SDS011;58101;48.658;2.328;2023-04-01T23:47:14;10.23;;;3.60;;
70549;SDS011;58101;48.658;2.328;2023-04-01T23:49:50;8.68;;;3.20;;
70549;SDS011;58101;48.658;2.328;2023-04-01T23:52:22;10.35;;;2.97;;
70549;SDS011;58101;48.658;2.328;2023-04-01T23:54:56;11.38;;;3.53;;
70549;SDS011;58101;48.658;2.328;2023-04-01T23:57:32;8.95;;;3.10;;
